Time;durP1;ratioP1;P1;durP2;ratioP2;P2;SDS_P1;SDS_P2;PMS_P1;PMS_P2;Temp;Humidity;BMP_temperature;BMP_pressure;BME280_temperature;BME280_humidity;BME280_pressure;Samples;Min_cycle;Max_cycle;Signal;HPM_P1;HPM_P2
2021/03/28 00:02:35;;;;;;;99.80;51.20;;;6.60;67.90;;;;;;5032893;28;20029;-68
2021/03/28 00:05:15;;;;;;;103.30;52.17;;;6.60;67.90;;;;;;5032869;28;20017;-68
2021/03/28 00:07:52;;;;;;;102.38;53.58;;;6.50;67.80;;;;;;5031565;28;20380;-68
2021/03/28 00:10:33;;;;;;;102.82;53.65;;;6.50;68.00;;;;;;5031872;28;20037;-68
2021/03/28 05:58:04;;;;;;;68.13;43.03;;;17.60;46.30;;;;;;5023588;28;20388;-68
2021/03/28 06:01:07;;;;;;;62.35;42.08;;;18.10;45.20;;;;;;5022162;28;20087;-67
2021/03/28 06:03:44;;;;;;;61.78;42.10;;;18.40;44.50;;;;;;5030052;28;20052;-67
2021/03/28 06:06:29;;;;;;;66.30;42.22;;;18.70;43.70;;;;;;5026620;28;20108;-68
2021/03/28 06:09:06;;;;;;;64.97;41.28;;;19.00;43.40;;;;;;5046816;28;20380;-67
2021/03/28 06:11:59;;;;;;;61.75;40.92;;;19.30;42.50;;;;;;5022496;28;20038;-67
2021/03/28 06:14:43;;;;;;;62.08;41.13;;;19.40;42.90;;;;;;5036979;28;20026;-67
2021/03/28 06:17:18;;;;;;;61.70;38.25;;;19.70;41.80;;;;;;5016256;28;20056;-67
2021/03/28 06:20:22;;;;;;;59.60;38.37;;;19.90;41.40;;;;;;5035873;28;20499;-66
2021/03/28 06:22:54;;;;;;;63.28;39.17;;;20.30;41.20;;;;;;5023184;28;20044;-64
2021/03/28 06:25:48;;;;;;;57.63;35.17;;;20.70;40.40;;;;;;5031270;28;20026;-66
2021/03/28 06:28:25;;;;;;;56.08;36.67;;;21.00;39.90;;;;;;5022855;28;20526;-66
2021/03/28 06:31:09;;;;;;;53.83;34.92;;;21.20;39.20;;;;;;5035411;28;20038;-66
2021/03/28 06:34:11;;;;;;;59.60;36.83;;;21.30;38.80;;;;;;5018736;28;20018;-67
2021/03/28 06:36:57;;;;;;;54.03;36.42;;;21.40;38.60;;;;;;5016450;28;20032;-67
2021/03/28 06:39:32;;;;;;;;;;;21.70;38.70;;;;;;5017859;28;20502;-72
2021/03/28 06:42:22;;;;;;;52.10;36.20;;;21.90;39.80;;;;;;5016181;28;19929;-66
2021/03/28 06:45:09;;;;;;;57.47;35.72;;;22.30;38.40;;;;;;5030092;28;20421;-67
2021/03/28 06:47:53;;;;;;;46.95;34.17;;;22.60;37.60;;;;;;5034477;28;20018;-66
2021/03/28 06:50:43;;;;;;;46.42;33.33;;;22.80;37.00;;;;;;5014892;28;20048;-69
2021/03/28 06:53:41;;;;;;;46.03;32.22;;;22.90;36.30;;;;;;5018560;28;20022;-67
2021/03/28 06:56:37;;;;;;;46.10;32.78;;;23.20;36.10;;;;;;5011452;28;20160;-68
2021/03/28 06:59:20;;;;;;;45.13;33.17;;;23.70;35.40;;;;;;5020134;28;20037;-67
2021/03/28 07:02:13;;;;;;;43.85;32.70;;;23.90;34.90;;;;;;5017871;28;20034;-67
2021/03/28 07:04:59;;;;;;;48.25;30.55;;;24.20;34.50;;;;;;5014765;28;20030;-66
2021/03/28 07:07:47;;;;;;;41.30;28.98;;;24.40;34.30;;;;;;5033227;28;20029;-67
2021/03/28 07:10:28;;;;;;;40.13;28.98;;;24.80;33.80;;;;;;5013948;28;20033;-67
2021/03/28 07:13:32;;;;;;;41.00;28.58;;;25.20;33.20;;;;;;5015715;28;20018;-75
2021/03/28 07:16:34;;;;;;;46.25;31.90;;;25.50;32.80;;;;;;5029334;28;20021;-67
2021/03/28 07:19:37;;;;;;;42.20;30.42;;;25.60;32.50;;;;;;5032714;28;20057;-67
2021/03/28 07:22:22;;;;;;;36.47;27.33;;;25.70;32.40;;;;;;5031241;28;20034;-67
2021/03/28 07:25:07;;;;;;;42.05;25.40;;;26.00;32.30;;;;;;5016435;28;20075;-67
2021/03/28 07:27:51;;;;;;;35.05;23.05;;;26.00;31.90;;;;;;5025424;28;20030;-67
2021/03/28 07:30:35;;;;;;;35.55;23.80;;;26.00;32.50;;;;;;5032894;28;20118;-68
2021/03/28 07:33:10;;;;;;;37.25;26.55;;;26.30;31.10;;;;;;5023272;28;20051;-68
2021/03/28 07:36:08;;;;;;;;;;;26.40;31.50;;;;;;5028241;28;20035;-68
2021/03/28 07:38:39;;;;;;;38.53;26.10;;;26.60;32.70;;;;;;5008522;28;20291;-68
2021/03/28 07:41:23;;;;;;;34.60;24.00;;;27.00;30.90;;;;;;5025011;28;20029;-68
2021/03/28 07:44:26;;;;;;;29.90;23.17;;;27.00;30.20;;;;;;5019418;28;20033;-67
2021/03/28 07:47:04;;;;;;;36.08;23.23;;;26.80;30.20;;;;;;5038435;28;20047;-69
2021/03/28 07:49:41;;;;;;;34.95;23.42;;;26.90;30.40;;;;;;5021078;28;20034;-68
2021/03/28 07:52:44;;;;;;;27.55;19.77;;;27.20;30.50;;;;;;5036775;28;20029;-68
2021/03/28 07:55:27;;;;;;;28.48;19.55;;;27.80;30.10;;;;;;5014560;28;20108;-67
2021/03/28 07:58:11;;;;;;;25.48;18.85;;;28.30;29.40;;;;;;5027686;28;20554;-67
2021/03/28 08:00:55;;;;;;;33.00;19.52;;;28.50;29.10;;;;;;5013382;28;20379;-68
2021/03/28 08:03:39;;;;;;;27.57;18.53;;;28.40;28.80;;;;;;5027559;28;20030;-68
2021/03/28 08:06:32;;;;;;;22.38;16.13;;;28.30;28.70;;;;;;5017230;28;20036;-67
2021/03/28 08:09:34;;;;;;;29.00;22.05;;;27.90;28.50;;;;;;5016946;28;20481;-68
2021/03/28 08:12:17;;;;;;;25.13;17.80;;;27.90;28.30;;;;;;5014117;28;20432;-68
2021/03/28 08:15:21;;;;;;;21.85;15.32;;;28.10;28.70;;;;;;5014218;28;20105;-68
2021/03/28 08:17:52;;;;;;;21.77;15.77;;;28.50;28.30;;;;;;5028739;28;20480;-67
2021/03/28 08:20:45;;;;;;;22.52;16.08;;;28.50;27.50;;;;;;5012216;28;20468;-68
2021/03/28 08:23:46;;;;;;;56.63;30.08;;;28.60;27.10;;;;;;5014792;28;20057;-67
2021/03/28 08:26:29;;;;;;;59.55;38.00;;;28.40;28.20;;;;;;5015700;28;20064;-68
2021/03/28 08:29:22;;;;;;;74.80;42.88;;;28.50;28.20;;;;;;5013666;28;20041;-68
2021/03/28 08:31:47;;;;;;;76.13;47.97;;;28.20;28.10;;;;;;5029945;28;20122;-68
2021/03/28 08:34:40;;;;;;;59.67;44.55;;;28.00;28.10;;;;;;5014459;28;20030;-67
2021/03/28 08:37:29;;;;;;;67.88;46.72;;;27.90;27.80;;;;;;5018131;28;20649;-70
2021/03/28 08:40:16;;;;;;;70.65;57.83;;;27.60;28.20;;;;;;5011974;28;20473;-70
2021/03/28 08:43:21;;;;;;;78.15;68.75;;;27.20;28.20;;;;;;5025491;28;20030;-68
2021/03/28 08:45:59;;;;;;;95.53;85.30;;;27.00;28.90;;;;;;5027409;28;20026;-69
2021/03/28 08:48:43;;;;;;;90.60;79.55;;;26.70;28.90;;;;;;5030131;28;20551;-72
2021/03/28 08:51:12;;;;;;;96.68;85.72;;;26.60;29.30;;;;;;5020799;28;20045;-71
2021/03/28 08:53:50;;;;;;;73.88;56.78;;;26.90;29.30;;;;;;5023134;28;20070;-69
2021/03/28 08:56:34;;;;;;;80.22;55.10;;;27.00;29.20;;;;;;5021500;28;20048;-68
2021/03/28 08:59:44;;;;;;;64.72;42.20;;;27.10;28.70;;;;;;5048650;28;20166;-68
2021/03/28 09:02:19;;;;;;;56.15;36.72;;;26.90;28.60;;;;;;5033713;28;20041;-69
2021/03/28 09:04:47;;;;;;;51.22;33.10;;;26.80;28.50;;;;;;5034797;28;20041;-68
2021/03/28 09:07:13;;;;;;;53.13;39.45;;;26.60;28.30;;;;;;5032551;28;20091;-68
2021/03/28 09:09:54;;;;;;;66.78;41.92;;;26.50;28.40;;;;;;5027852;28;20042;-69
2021/03/28 09:12:28;;;;;;;57.67;38.03;;;26.40;28.50;;;;;;5040516;28;20073;-69
2021/03/28 09:15:09;;;;;;;51.17;34.35;;;26.50;28.60;;;;;;5025086;28;20025;-72
2021/03/28 09:17:44;;;;;;;74.45;61.03;;;26.60;28.40;;;;;;5026650;28;20053;-67
2021/03/28 09:20:18;;;;;;;59.30;48.08;;;26.70;28.10;;;;;;5022866;28;20037;-68
2021/03/28 09:23:03;;;;;;;59.50;46.25;;;26.70;28.40;;;;;;5035449;28;20659;-68
2021/03/28 09:25:28;;;;;;;69.68;60.40;;;26.80;28.50;;;;;;5019325;28;20025;-68
2021/03/28 09:28:03;;;;;;;56.55;44.80;;;26.80;28.30;;;;;;5025653;28;20105;-67
2021/03/28 09:30:52;;;;;;;58.67;43.88;;;26.90;28.10;;;;;;5031774;28;20042;-68
2021/03/28 09:34:00;;;;;;;48.15;29.83;;;27.00;28.10;;;;;;5040656;28;20025;-68
2021/03/28 09:36:52;;;;;;;33.33;24.15;;;27.00;27.90;;;;;;5029384;28;20037;-72
2021/03/28 09:39:35;;;;;;;34.28;23.92;;;27.10;27.60;;;;;;5017451;28;20041;-69
2021/03/28 09:42:23;;;;;;;129.63;116.38;;;26.80;27.30;;;;;;5019778;28;20752;-68
2021/03/28 09:45:19;;;;;;;59.15;43.97;;;26.60;27.30;;;;;;5023859;28;20026;-68
2021/03/28 09:48:07;;;;;;;97.00;74.05;;;26.40;27.70;;;;;;5021355;28;20030;-68
2021/03/28 09:51:17;;;;;;;66.30;46.30;;;26.50;27.80;;;;;;5025195;28;20034;-69
2021/03/28 09:54:10;;;;;;;45.83;33.10;;;26.40;27.80;;;;;;5035261;28;20120;-69
2021/03/28 09:56:57;;;;;;;30.90;19.30;;;26.70;28.10;;;;;;5033132;28;20049;-68
2021/03/28 09:59:32;;;;;;;26.65;19.15;;;26.60;27.50;;;;;;5046392;28;20025;-68
2021/03/28 10:02:12;;;;;;;30.25;19.90;;;26.40;27.30;;;;;;5031214;28;20518;-68
2021/03/28 10:04:47;;;;;;;27.10;19.88;;;26.20;27.30;;;;;;5026184;28;20353;-68
2021/03/28 10:07:14;;;;;;;31.58;21.25;;;26.20;27.20;;;;;;5027916;28;20056;-68
2021/03/28 10:09:43;;;;;;;33.28;19.95;;;26.10;27.20;;;;;;5029718;28;20042;-68
2021/03/28 10:12:55;;;;;;;34.85;21.83;;;26.00;27.30;;;;;;5031906;28;20101;-68
2021/03/28 10:15:26;;;;;;;41.97;23.23;;;26.00;28.00;;;;;;5027498;28;20484;-69
2021/03/28 10:18:13;;;;;;;48.25;32.78;;;26.10;27.70;;;;;;5029290;28;20560;-69
2021/03/28 10:20:57;;;;;;;43.22;30.10;;;26.40;27.70;;;;;;5045365;28;20450;-66
2021/03/28 10:23:41;;;;;;;42.78;26.63;;;26.50;27.60;;;;;;5031643;28;20064;-66
2021/03/28 10:26:37;;;;;;;47.00;36.03;;;26.60;27.60;;;;;;5026632;28;20022;-66
2021/03/28 10:29:41;;;;;;;32.60;24.33;;;26.80;27.20;;;;;;5028014;28;20029;-66
2021/03/28 10:32:27;;;;;;;42.78;31.35;;;26.60;27.10;;;;;;5030256;28;20098;-67
2021/03/28 10:35:07;;;;;;;38.70;25.98;;;26.50;27.20;;;;;;5045151;28;20084;-66
2021/03/28 10:38:11;;;;;;;37.13;23.85;;;26.60;27.00;;;;;;5021218;28;20072;-67
2021/03/28 10:40:51;;;;;;;48.33;34.40;;;26.60;26.90;;;;;;5040681;28;20084;-67
2021/03/28 10:43:40;;;;;;;41.60;26.85;;;26.60;27.40;;;;;;5026185;28;20030;-67
2021/03/28 10:46:12;;;;;;;38.78;24.33;;;26.60;27.10;;;;;;5026290;28;20036;-68
2021/03/28 10:49:01;;;;;;;50.42;33.25;;;26.70;27.60;;;;;;5040377;28;20018;-69
2021/03/28 10:52:20;;;;;;;47.05;29.38;;;26.80;27.40;;;;;;5047386;28;20048;-68
2021/03/28 10:55:13;;;;;;;34.83;23.48;;;27.10;27.20;;;;;;5013464;28;20026;-68
2021/03/28 10:58:23;;;;;;;42.83;25.77;;;26.80;26.70;;;;;;5035625;28;20048;-67
2021/03/28 11:01:21;;;;;;;34.72;21.20;;;26.60;26.80;;;;;;5029055;28;20026;-69
2021/03/28 11:04:14;;;;;;;44.17;25.63;;;26.20;26.90;;;;;;5013902;28;20042;-67
2021/03/28 11:06:55;;;;;;;36.85;24.42;;;26.20;27.10;;;;;;5015241;28;20033;-67
2021/03/28 11:09:43;;;;;;;40.90;29.92;;;26.20;27.00;;;;;;5018519;28;21234;-67
2021/03/28 11:12:21;;;;;;;41.35;26.27;;;25.90;27.30;;;;;;5029212;28;20029;-67
2021/03/28 11:14:49;;;;;;;33.90;22.15;;;25.70;27.20;;;;;;5048370;28;20025;-67
2021/03/28 11:17:33;;;;;;;41.40;26.95;;;25.60;27.60;;;;;;5033292;28;20431;-67
2021/03/28 11:20:32;;;;;;;32.88;21.58;;;25.60;27.40;;;;;;5019868;28;20481;-67
2021/03/28 11:23:05;;;;;;;51.78;40.95;;;25.70;27.30;;;;;;5030370;28;20448;-67
2021/03/28 11:26:15;;;;;;;39.03;26.13;;;25.80;27.20;;;;;;5014704;28;20022;-67
2021/03/28 11:28:49;;;;;;;36.17;20.98;;;25.60;27.10;;;;;;5013876;28;20040;-67
2021/03/28 11:31:29;;;;;;;35.78;22.77;;;25.50;27.20;;;;;;5014695;28;20404;-72
2021/03/28 11:34:15;;;;;;;35.08;22.58;;;25.40;27.10;;;;;;5028522;28;20129;-67
2021/03/28 11:36:58;;;;;;;31.00;20.75;;;25.20;27.10;;;;;;5028532;28;20026;-67
2021/03/28 11:39:30;;;;;;;31.33;19.85;;;24.70;27.20;;;;;;5025753;28;20029;-67
2021/03/28 11:41:59;;;;;;;31.48;19.98;;;24.20;27.40;;;;;;5017026;28;20026;-66
2021/03/28 11:44:42;;;;;;;30.95;20.08;;;23.90;27.60;;;;;;5014553;28;20057;-67
2021/03/28 11:47:20;;;;;;;34.42;21.08;;;23.60;27.60;;;;;;5030923;28;20029;-67
2021/03/28 11:49:56;;;;;;;38.78;22.27;;;23.30;27.90;;;;;;5012855;28;20380;-66
2021/03/28 11:52:26;;;;;;;32.67;20.60;;;23.10;28.20;;;;;;5017330;28;20029;-67
2021/03/28 11:55:08;;;;;;;31.92;20.98;;;22.70;28.20;;;;;;5014610;28;20056;-66
2021/03/28 11:57:35;;;;;;;35.45;21.65;;;21.90;28.50;;;;;;5031089;28;20037;-67
2021/03/28 12:00:25;;;;;;;44.83;30.70;;;21.10;28.90;;;;;;5015452;28;20034;-67
2021/03/28 12:03:33;;;;;;;49.75;34.40;;;20.40;29.50;;;;;;5037998;28;20121;-66
2021/03/28 12:06:19;;;;;;;38.83;24.98;;;20.30;29.90;;;;;;5027779;28;20033;-66
2021/03/28 12:08:44;;;;;;;36.38;25.90;;;20.10;30.00;;;;;;5028886;28;20013;-66
2021/03/28 12:11:35;;;;;;;33.03;23.10;;;19.80;30.40;;;;;;5039514;28;20373;-66
2021/03/28 12:14:26;;;;;;;34.17;22.02;;;19.50;30.60;;;;;;5014604;28;20591;-70
2021/03/28 12:17:10;;;;;;;33.60;21.17;;;19.00;31.10;;;;;;5030141;28;20041;-66
2021/03/28 12:19:43;;;;;;;32.45;19.33;;;18.60;31.60;;;;;;5025799;28;20114;-67
2021/03/28 12:22:19;;;;;;;34.65;20.13;;;18.40;31.90;;;;;;5025907;28;20021;-67
2021/03/28 12:24:57;;;;;;;34.20;19.30;;;18.20;32.20;;;;;;5034376;28;20026;-67
2021/03/28 12:27:35;;;;;;;32.97;19.75;;;17.90;32.50;;;;;;5036532;28;20030;-69
2021/03/28 12:30:01;;;;;;;31.02;19.23;;;17.70;33.00;;;;;;5036445;28;20036;-66
2021/03/28 12:32:43;;;;;;;31.27;19.75;;;17.50;33.00;;;;;;5021273;28;20022;-66
2021/03/28 12:35:24;;;;;;;31.05;19.88;;;17.30;33.40;;;;;;5023261;28;20104;-67
2021/03/28 12:37:52;;;;;;;32.83;18.52;;;17.30;33.60;;;;;;5019819;28;20030;-67
2021/03/28 12:40:38;;;;;;;29.90;18.92;;;17.30;33.80;;;;;;5023011;28;20026;-67
2021/03/28 12:43:04;;;;;;;;;;;17.20;34.00;;;;;;5033524;28;20068;-65
2021/03/28 12:45:35;;;;;;;38.42;22.77;;;17.20;33.70;;;;;;5021181;28;19906;-65
2021/03/28 12:48:12;;;;;;;31.50;19.27;;;17.10;34.40;;;;;;5022487;28;20037;-66
2021/03/28 12:50:48;;;;;;;31.00;19.55;;;17.00;34.50;;;;;;5020504;28;20029;-66
2021/03/28 12:53:21;;;;;;;31.70;20.00;;;16.90;34.70;;;;;;5034200;28;20988;-66
2021/03/28 12:55:54;;;;;;;41.05;24.48;;;16.70;35.00;;;;;;5032989;28;20476;-66
2021/03/28 12:58:34;;;;;;;33.00;22.00;;;16.70;35.10;;;;;;5021354;28;20399;-66
2021/03/28 13:01:15;;;;;;;29.02;18.95;;;16.60;35.40;;;;;;5022544;28;20055;-66
2021/03/28 13:03:47;;;;;;;31.80;18.05;;;16.60;35.30;;;;;;5020121;28;20026;-67
2021/03/28 13:06:22;;;;;;;30.27;18.35;;;16.60;35.30;;;;;;5021401;28;20459;-67
2021/03/28 13:09:00;;;;;;;28.83;17.17;;;16.40;35.60;;;;;;5024294;28;21383;-66
2021/03/28 13:11:47;;;;;;;29.67;17.83;;;16.40;35.60;;;;;;5033193;28;20509;-67
2021/03/28 13:14:43;;;;;;;31.38;17.20;;;16.30;35.50;;;;;;5018946;28;20028;-68
2021/03/28 13:17:15;;;;;;;33.58;20.83;;;16.20;35.80;;;;;;5020687;28;20036;-66
2021/03/28 13:19:50;;;;;;;47.53;31.25;;;16.20;35.80;;;;;;5028089;28;20049;-66
2021/03/28 13:22:45;;;;;;;33.38;22.58;;;16.10;35.80;;;;;;5033248;28;20026;-65
2021/03/28 13:25:17;;;;;;;39.40;22.05;;;16.10;35.80;;;;;;5017195;28;20298;-67
2021/03/28 13:28:15;;;;;;;29.63;18.67;;;16.10;35.80;;;;;;5037523;28;20026;-66
2021/03/28 13:30:44;;;;;;;27.50;17.10;;;16.10;36.00;;;;;;5022691;28;20117;-66
2021/03/28 13:33:34;;;;;;;26.48;16.73;;;16.00;35.90;;;;;;5017029;28;20120;-66
2021/03/28 13:36:14;;;;;;;27.77;17.13;;;16.00;36.10;;;;;;5033805;28;20018;-67
2021/03/28 13:38:42;;;;;;;29.45;16.80;;;16.00;36.10;;;;;;5042787;28;20412;-67
2021/03/28 13:41:25;;;;;;;26.70;16.40;;;16.00;36.30;;;;;;5026037;28;20049;-66
2021/03/28 13:44:04;;;;;;;26.48;15.32;;;15.90;36.40;;;;;;5031101;28;20025;-65
2021/03/28 13:46:30;;;;;;;28.23;15.95;;;15.90;36.50;;;;;;5026334;28;20018;-66
2021/03/28 13:49:06;;;;;;;26.33;15.82;;;15.90;36.50;;;;;;5034303;28;20068;-66
2021/03/28 13:51:33;;;;;;;29.67;15.75;;;15.80;36.70;;;;;;5032501;28;20121;-69
2021/03/28 13:54:08;;;;;;;25.50;15.07;;;15.70;36.80;;;;;;5026305;28;20057;-66
2021/03/28 13:56:39;;;;;;;30.70;16.95;;;15.70;36.90;;;;;;5031317;28;21509;-67
2021/03/28 13:59:10;;;;;;;28.85;17.52;;;15.60;36.90;;;;;;5021279;28;20088;-67
2021/03/28 14:01:41;;;;;;;38.28;20.40;;;15.60;37.10;;;;;;5032818;28;20546;-69
2021/03/28 14:04:26;;;;;;;60.90;30.17;;;15.60;37.40;;;;;;5016239;28;20108;-65
2021/03/28 14:07:30;;;;;;;65.40;30.08;;;15.50;37.40;;;;;;5017791;28;20029;-65
2021/03/28 14:10:04;;;;;;;47.00;23.15;;;15.40;37.60;;;;;;5025855;28;20034;-71
2021/03/28 14:12:53;;;;;;;37.60;20.65;;;15.30;37.90;;;;;;5017494;28;20088;-67
2021/03/28 14:15:37;;;;;;;40.55;22.40;;;15.30;38.20;;;;;;5015783;28;20022;-66
2021/03/28 14:18:17;;;;;;;45.00;24.73;;;15.20;38.40;;;;;;5020903;28;20030;-66
2021/03/28 14:20:51;;;;;;;43.97;23.75;;;15.20;38.50;;;;;;5017537;28;20502;-67
2021/03/28 14:23:22;;;;;;;46.78;23.70;;;15.20;38.60;;;;;;5013962;28;20080;-67
2021/03/28 14:25:56;;;;;;;50.05;27.17;;;15.20;38.80;;;;;;5014405;28;20030;-67
2021/03/28 14:28:41;;;;;;;48.17;26.42;;;15.10;38.90;;;;;;5026204;28;20056;-67
2021/03/28 14:31:09;;;;;;;42.08;23.02;;;15.10;39.00;;;;;;5028548;28;20026;-67
2021/03/28 14:34:02;;;;;;;48.95;28.42;;;15.00;39.10;;;;;;5015225;28;20030;-67
2021/03/28 14:37:05;;;;;;;41.30;25.40;;;15.00;39.30;;;;;;5015825;28;20096;-67
2021/03/28 14:40:07;;;;;;;53.60;31.90;;;14.90;39.30;;;;;;5014567;28;20030;-67
2021/03/28 14:42:50;;;;;;;68.45;37.03;;;14.90;39.50;;;;;;5014006;28;20498;-67
2021/03/28 14:45:28;;;;;;;60.33;33.28;;;14.80;39.60;;;;;;5036638;28;20487;-67
2021/03/28 14:48:20;;;;;;;49.25;27.13;;;14.80;39.80;;;;;;5016768;28;20105;-68
2021/03/28 14:51:09;;;;;;;45.45;27.67;;;14.70;39.90;;;;;;5028245;28;20041;-67
2021/03/28 14:54:16;;;;;;;47.20;28.00;;;14.60;40.20;;;;;;5016324;28;20034;-66
2021/03/28 14:57:18;;;;;;;45.35;25.63;;;14.60;40.50;;;;;;5020124;28;20149;-67
2021/03/28 14:59:52;;;;;;;46.22;24.77;;;14.50;40.50;;;;;;5025504;28;20088;-68
2021/03/28 15:02:30;;;;;;;44.08;24.25;;;14.50;40.60;;;;;;5039010;28;20029;-67
2021/03/28 15:05:30;;;;;;;47.60;26.02;;;14.50;40.80;;;;;;5024965;28;20045;-67
2021/03/28 15:08:22;;;;;;;52.88;29.35;;;14.50;41.00;;;;;;5020534;28;20033;-66
2021/03/28 15:11:04;;;;;;;52.92;27.67;;;14.40;41.00;;;;;;5025008;28;20152;-67
2021/03/28 15:13:51;;;;;;;54.35;25.67;;;14.40;41.20;;;;;;5028453;28;20036;-67
2021/03/28 15:16:26;;;;;;;48.03;26.25;;;14.30;41.30;;;;;;5027232;28;20103;-68
2021/03/28 15:19:17;;;;;;;49.55;26.02;;;14.20;41.50;;;;;;5040919;28;20140;-66
2021/03/28 15:21:55;;;;;;;43.17;23.33;;;14.10;41.60;;;;;;5026908;28;20025;-66
2021/03/28 15:24:36;;;;;;;42.88;21.58;;;14.00;41.80;;;;;;5026073;28;20491;-67
2021/03/28 15:27:12;;;;;;;39.85;21.80;;;14.00;41.80;;;;;;5031828;28;20034;-67
2021/03/28 15:29:45;;;;;;;43.17;23.85;;;13.90;41.80;;;;;;5020295;28;20079;-68
2021/03/28 15:32:28;;;;;;;54.05;26.27;;;13.80;41.90;;;;;;5023253;28;20086;-67
2021/03/28 15:35:13;;;;;;;45.90;23.95;;;13.80;42.10;;;;;;5021103;28;20095;-76
2021/03/28 15:38:15;;;;;;;54.97;26.80;;;13.80;42.20;;;;;;5029262;28;20030;-67
2021/03/28 15:41:02;;;;;;;52.13;25.80;;;13.60;42.40;;;;;;5033987;28;20041;-68
2021/03/28 15:43:47;;;;;;;50.17;25.35;;;13.60;42.60;;;;;;5027880;28;20026;-69
2021/03/28 15:46:19;;;;;;;58.65;27.08;;;13.50;42.70;;;;;;5013081;28;20500;-69
2021/03/28 15:49:04;;;;;;;61.83;31.40;;;13.40;43.00;;;;;;5028709;28;20026;-69
2021/03/28 15:51:39;;;;;;;61.55;29.80;;;13.30;43.00;;;;;;5018411;28;20495;-70
2021/03/28 15:54:28;;;;;;;55.85;28.85;;;13.30;43.40;;;;;;5033108;28;20036;-69
2021/03/28 15:56:57;;;;;;;70.07;34.05;;;13.20;43.40;;;;;;5029762;28;20107;-77
2021/03/28 15:59:47;;;;;;;67.72;35.20;;;13.20;43.50;;;;;;5015467;28;20097;-69
2021/03/28 16:02:22;;;;;;;66.68;33.03;;;13.10;43.60;;;;;;5015987;28;20022;-70
2021/03/28 16:05:29;;;;;;;70.45;33.90;;;13.10;43.80;;;;;;5025674;28;20033;-70
2021/03/28 16:07:57;;;;;;;;;;;13.00;43.90;;;;;;5016223;28;20044;-70
2021/03/28 16:10:55;;;;;;;88.60;43.47;;;12.90;43.50;;;;;;5030700;28;20383;-69
2021/03/28 16:13:48;;;;;;;83.45;43.22;;;12.80;44.00;;;;;;5016995;28;20526;-69
2021/03/28 16:16:51;;;;;;;98.30;49.90;;;12.70;44.30;;;;;;5018262;28;20112;-75
2021/03/28 16:19:36;;;;;;;86.43;41.60;;;12.70;44.70;;;;;;5027761;28;20053;-69
2021/03/28 16:22:16;;;;;;;102.90;51.92;;;12.60;44.80;;;;;;5032777;28;20034;-68
2021/03/28 16:24:49;;;;;;;93.18;45.72;;;12.50;44.70;;;;;;5015397;28;20036;-69
2021/03/28 16:27:18;;;;;;;98.43;51.50;;;12.50;44.70;;;;;;5020773;28;20607;-75
2021/03/28 16:29:46;;;;;;;106.15;53.60;;;12.40;44.70;;;;;;5017799;28;20101;-69
2021/03/28 16:32:49;;;;;;;97.35;47.00;;;12.40;44.80;;;;;;5016746;28;20037;-71
2021/03/28 16:35:50;;;;;;;97.63;50.97;;;12.30;44.90;;;;;;5017434;28;20032;-70
2021/03/28 16:38:22;;;;;;;101.53;51.88;;;12.20;45.00;;;;;;5029750;28;20208;-72
2021/03/28 16:40:54;;;;;;;114.32;58.63;;;12.10;45.00;;;;;;5038613;28;20071;-71
2021/03/28 16:43:49;;;;;;;121.25;65.70;;;12.10;45.20;;;;;;5025965;28;20022;-70
2021/03/28 16:46:22;;;;;;;125.75;67.55;;;12.00;45.50;;;;;;5040336;28;20480;-73
2021/03/28 16:48:53;;;;;;;129.43;68.82;;;11.90;45.40;;;;;;5022420;28;20038;-71
2021/03/28 16:51:28;;;;;;;131.18;69.57;;;11.90;45.50;;;;;;5024563;28;20040;-69
2021/03/28 16:54:15;;;;;;;134.15;67.95;;;11.80;45.60;;;;;;5020030;28;20469;-68
2021/03/28 16:56:52;;;;;;;121.18;64.65;;;11.80;45.60;;;;;;5036320;28;20112;-69
2021/03/28 16:59:40;;;;;;;134.65;69.32;;;11.70;45.60;;;;;;5028097;28;20048;-68
2021/03/28 17:02:27;;;;;;;137.20;71.40;;;11.70;45.70;;;;;;5025936;28;20093;-73
2021/03/28 17:05:26;;;;;;;150.20;78.57;;;11.70;45.80;;;;;;5026270;28;20018;-67
2021/03/28 17:08:09;;;;;;;155.68;77.82;;;11.70;45.90;;;;;;5024723;28;20084;-69
2021/03/28 17:10:51;;;;;;;171.35;85.60;;;11.60;45.90;;;;;;5021295;28;20030;-69
2021/03/28 17:13:24;;;;;;;149.85;78.57;;;11.60;46.00;;;;;;5029471;28;20038;-71
2021/03/28 17:15:51;;;;;;;130.63;68.57;;;11.60;45.90;;;;;;5020536;28;20022;-73
2021/03/28 17:18:33;;;;;;;150.52;76.93;;;11.60;45.80;;;;;;5033862;28;20057;-71
2021/03/28 17:21:32;;;;;;;156.27;75.68;;;11.60;45.80;;;;;;5024675;28;20076;-70
2021/03/28 17:24:45;;;;;;;130.00;65.78;;;11.50;45.70;;;;;;5018370;28;20424;-70
2021/03/28 17:27:16;;;;;;;115.85;55.88;;;11.50;45.70;;;;;;5017795;28;20125;-69
2021/03/28 17:29:47;;;;;;;109.72;55.53;;;11.50;45.70;;;;;;5020188;28;20380;-70
2021/03/28 17:32:25;;;;;;;130.40;59.78;;;11.50;45.80;;;;;;5032352;28;20029;-70
2021/03/28 17:34:58;;;;;;;113.57;56.55;;;11.50;45.90;;;;;;5018113;28;20056;-71
2021/03/28 17:37:23;;;;;;;106.00;52.08;;;11.40;46.00;;;;;;5031791;28;20357;-70
2021/03/28 17:39:51;;;;;;;110.90;56.35;;;11.40;46.10;;;;;;5032563;28;20032;-71
2021/03/28 17:42:29;;;;;;;122.15;56.30;;;11.40;46.20;;;;;;5028463;28;20029;-70
2021/03/28 17:44:56;;;;;;;123.78;60.22;;;11.30;46.30;;;;;;5017085;28;20029;-73
2021/03/28 17:47:59;;;;;;;136.63;65.63;;;11.30;46.50;;;;;;5022799;28;20043;-70
2021/03/28 17:50:31;;;;;;;183.68;87.88;;;11.20;46.50;;;;;;5017976;28;20022;-70
2021/03/28 17:53:16;;;;;;;136.18;69.55;;;11.20;46.70;;;;;;5032444;28;20030;-71
2021/03/28 17:55:55;;;;;;;112.85;56.85;;;11.20;46.90;;;;;;5039960;28;20116;-70
2021/03/28 17:58:43;;;;;;;95.20;46.67;;;11.10;47.00;;;;;;5013400;28;20157;-68
2021/03/28 18:01:33;;;;;;;89.55;46.60;;;11.10;47.10;;;;;;5028223;28;20045;-71
2021/03/28 18:04:20;;;;;;;113.10;51.20;;;11.10;47.30;;;;;;5037457;28;20021;-69
2021/03/28 18:06:47;;;;;;;84.82;41.88;;;11.00;47.40;;;;;;5031340;28;20116;-70
2021/03/28 18:09:35;;;;;;;90.47;42.42;;;11.00;47.50;;;;;;5019756;28;20014;-70
2021/03/28 18:12:01;;;;;;;89.82;42.25;;;11.00;47.80;;;;;;5031401;28;20042;-70
2021/03/28 18:14:35;;;;;;;84.53;44.17;;;10.90;48.00;;;;;;5039923;28;20022;-70
2021/03/28 18:17:03;;;;;;;87.95;45.97;;;10.90;48.20;;;;;;5018929;28;20017;-69
2021/03/28 18:19:30;;;;;;;98.60;48.28;;;10.80;48.40;;;;;;5025797;28;20037;-69
2021/03/28 18:22:01;;;;;;;114.30;49.72;;;10.80;48.60;;;;;;5021797;28;20026;-70
2021/03/28 18:24:34;;;;;;;115.65;53.67;;;10.80;48.90;;;;;;5025550;28;20024;-69
2021/03/28 18:27:20;;;;;;;138.13;58.63;;;10.70;49.20;;;;;;5025388;28;20105;-70
2021/03/28 18:29:52;;;;;;;129.52;55.90;;;10.70;49.50;;;;;;5034108;28;20638;-69
2021/03/28 18:32:23;;;;;;;123.15;57.03;;;10.60;49.40;;;;;;5046172;28;20443;-70
2021/03/28 18:35:20;;;;;;;130.23;62.00;;;10.60;49.70;;;;;;5031271;28;20063;-70
2021/03/28 18:37:53;;;;;;;141.23;67.78;;;10.60;50.10;;;;;;5042913;28;20037;-70
2021/03/28 18:40:28;;;;;;;127.63;60.75;;;10.50;50.00;;;;;;5031256;28;20083;-69
2021/03/28 18:43:01;;;;;;;135.40;63.60;;;10.50;50.30;;;;;;5031971;28;20029;-75
2021/03/28 18:45:46;;;;;;;127.07;62.03;;;10.50;50.40;;;;;;5034640;28;20037;-70
2021/03/28 18:48:18;;;;;;;109.38;51.53;;;10.40;50.60;;;;;;5039339;28;20029;-70
2021/03/28 18:50:50;;;;;;;126.15;51.92;;;10.40;50.70;;;;;;5042018;28;20052;-69
2021/03/28 18:53:22;;;;;;;122.55;54.53;;;10.40;50.80;;;;;;5053920;28;20105;-70
2021/03/28 18:55:51;;;;;;;126.90;54.00;;;10.30;50.80;;;;;;5049140;28;20017;-69
2021/03/28 18:58:33;;;;;;;119.32;53.05;;;10.30;50.90;;;;;;5036750;28;20046;-68
2021/03/28 19:01:21;;;;;;;100.35;46.25;;;10.30;51.10;;;;;;5047804;28;20036;-69
2021/03/28 19:03:59;;;;;;;106.07;47.65;;;10.20;51.10;;;;;;5029571;28;20036;-68
2021/03/28 19:06:29;;;;;;;103.47;49.55;;;10.20;51.30;;;;;;5029517;28;20025;-69
2021/03/28 19:09:03;;;;;;;95.10;46.50;;;10.20;51.30;;;;;;5029522;28;20029;-70
2021/03/28 19:11:38;;;;;;;92.80;45.80;;;10.10;51.40;;;;;;5020428;28;20021;-69
2021/03/28 19:14:27;;;;;;;98.85;46.47;;;10.10;51.60;;;;;;5029204;28;20080;-69
2021/03/28 19:17:11;;;;;;;88.15;44.92;;;10.10;51.70;;;;;;5027020;28;20505;-69
2021/03/28 19:19:40;;;;;;;88.82;45.95;;;10.00;51.70;;;;;;5025780;28;20380;-70
2021/03/28 19:22:06;;;;;;;88.18;44.58;;;10.00;51.80;;;;;;5043596;28;20036;-70
2021/03/28 19:24:38;;;;;;;109.32;50.30;;;10.00;51.90;;;;;;5029808;28;20470;-75
2021/03/28 19:27:21;;;;;;;72.80;38.95;;;9.90;52.00;;;;;;5012110;28;20113;-70
2021/03/28 19:29:54;;;;;;;74.28;37.33;;;9.90;52.20;;;;;;5029155;28;20037;-70